createdAt,value
2023-02-18T00:00:11.484Z,100406.97
2023-02-18T00:02:38.972Z,100405.22
2023-02-18T00:05:07.140Z,100400.78
2023-02-18T00:07:35.557Z,100403.47
2023-02-18T00:10:03.340Z,100404.34
2023-02-18T00:12:32.887Z,100407.88
2023-02-18T00:15:00.617Z,100399.06
2023-02-18T00:17:29.564Z,100411.44
2023-02-18T00:19:57.160Z,100402.59
2023-02-18T00:22:24.963Z,100399.94
2023-02-18T00:24:52.662Z,100399.94
2023-02-18T00:27:20.309Z,100401.72
2023-02-18T00:29:49.101Z,100382.22
2023-02-18T00:32:16.635Z,100388.41
2023-02-18T00:34:44.256Z,100385.75
2023-02-18T00:37:11.836Z,100378.69
2023-02-18T00:39:39.346Z,100391.97
2023-02-18T00:42:06.950Z,100381.34
2023-02-18T00:44:34.419Z,100382.25
2023-02-18T00:47:03.260Z,100389.31
2023-02-18T00:49:31.221Z,100396.41
2023-02-18T00:51:58.704Z,100391.13
2023-02-18T00:54:26.161Z,100386.69
2023-02-18T00:56:53.669Z,100389.31
2023-02-18T00:59:21.169Z,100364.56
2023-02-18T01:01:48.852Z,100395.53
2023-02-18T01:04:17.656Z,100396.41
2023-02-18T01:06:45.147Z,100396.41
2023-02-18T01:09:12.624Z,100389.31
2023-02-18T01:11:40.270Z,100385.81
2023-02-18T01:14:07.799Z,100375.19
2023-02-18T01:16:35.264Z,100385.78
2023-02-18T01:19:02.742Z,100388.47
2023-02-18T01:21:31.562Z,100386.72
2023-02-18T01:23:59.386Z,100389.38
2023-02-18T01:26:26.961Z,100372.53
2023-02-18T01:28:54.485Z,100376.97
2023-02-18T01:31:22.100Z,100392.03
2023-02-18T01:33:49.642Z,100391.16
2023-02-18T01:36:18.058Z,100386.72
2023-02-18T01:38:46.923Z,100385.81
2023-02-18T01:41:14.458Z,100392.03
2023-02-18T01:43:41.941Z,100384.94
2023-02-18T01:46:16.155Z,100390.25
2023-02-18T01:48:49.191Z,100389.34
2023-02-18T01:51:17.699Z,100389.31
2023-02-18T01:53:50.253Z,100390.25
2023-02-18T01:56:24.519Z,100396.44
2023-02-18T01:58:53.492Z,100393.75
2023-02-18T02:01:21.220Z,100384.88
2023-02-18T02:03:48.677Z,100376.00
2023-02-18T02:06:18.881Z,100369.81
2023-02-18T02:08:49.023Z,100373.31
2023-02-18T02:11:24.613Z,100373.34
2023-02-18T02:14:05.834Z,100379.50
2023-02-18T02:16:39.393Z,100382.19
2023-02-18T02:19:23.738Z,100377.72
2023-02-18T02:22:15.317Z,100380.41
2023-02-18T02:24:55.927Z,100372.44
2023-02-18T02:27:26.720Z,100371.56
2023-02-18T02:30:14.461Z,100380.44
2023-02-18T02:33:07.655Z,100380.41
2023-02-18T02:35:38.817Z,100373.31
2023-02-18T02:38:09.105Z,100372.44
2023-02-18T02:40:39.849Z,100363.59
2023-02-18T02:43:14.575Z,100360.03
2023-02-18T02:45:50.005Z,100360.03
2023-02-18T02:48:25.855Z,100360.91
2023-02-18T02:50:58.042Z,100361.78
2023-02-18T02:53:28.054Z,100366.22
2023-02-18T02:55:56.249Z,100360.91
2023-02-18T02:58:24.464Z,100361.81
2023-02-18T03:01:02.561Z,100359.13
2023-02-18T03:03:50.884Z,100353.81
2023-02-18T03:06:33.083Z,100360.00
2023-02-18T03:09:08.163Z,100372.41
2023-02-18T03:11:43.432Z,100369.75
2023-02-18T03:14:14.107Z,100366.19
2023-02-18T03:16:47.500Z,100367.09
2023-02-18T03:19:20.308Z,100357.31
2023-02-18T03:21:53.431Z,100352.84
2023-02-18T03:24:25.555Z,100352.91
2023-02-18T03:26:56.499Z,100360.88
2023-02-18T03:29:24.117Z,100348.44
2023-02-18T03:31:55.572Z,100356.41
2023-02-18T03:34:26.676Z,100347.56
2023-02-18T03:36:56.414Z,100345.78
2023-02-18T03:39:26.524Z,100344.84
2023-02-18T03:41:54.636Z,100336.88
2023-02-18T03:44:22.221Z,100333.31
2023-02-18T03:46:49.697Z,100336.84
2023-02-18T03:49:17.381Z,100331.53
2023-02-18T03:51:45.116Z,100330.63
2023-02-18T03:54:14.479Z,100328.00
2023-02-18T03:56:42.522Z,100325.34
2023-02-18T03:59:10.459Z,100327.09
2023-02-18T04:01:38.005Z,100313.78
2023-02-18T04:04:05.930Z,100316.41
2023-02-18T04:06:33.476Z,100311.97
2023-02-18T04:09:00.969Z,100309.31
2023-02-18T04:11:30.083Z,100311.97
2023-02-18T04:13:57.566Z,100297.75
2023-02-18T04:16:25.096Z,100299.50
2023-02-18T04:18:52.610Z,100303.06
2023-02-18T04:21:20.116Z,100302.16
2023-02-18T04:23:47.650Z,100294.16
2023-02-18T04:26:15.153Z,100301.25
2023-02-18T04:28:43.958Z,100303.03
2023-02-18T04:31:12.308Z,100298.59
2023-02-18T04:33:39.815Z,100299.44
2023-02-18T04:36:08.707Z,100296.75
2023-02-18T04:38:36.580Z,100308.25
2023-02-18T04:41:04.149Z,100305.63
2023-02-18T04:43:31.600Z,100302.97
2023-02-18T04:46:00.462Z,100310.00
2023-02-18T04:48:28.033Z,100299.38
2023-02-18T04:50:55.496Z,100302.03
2023-02-18T04:53:23.111Z,100304.72
2023-02-18T04:55:51.681Z,100310.03
2023-02-18T04:58:19.243Z,100302.97
2023-02-18T05:00:47.144Z,100303.84
2023-02-18T05:03:16.221Z,100304.84
2023-02-18T05:05:43.779Z,100304.75
2023-02-18T05:08:11.213Z,100293.28
2023-02-18T05:10:39.370Z,100294.19
2023-02-18T05:13:06.858Z,100291.63
2023-02-18T05:15:34.397Z,100291.56
2023-02-18T05:18:01.885Z,100285.41
2023-02-18T05:20:30.733Z,100278.25
2023-02-18T05:22:58.272Z,100275.66
2023-02-18T05:25:25.774Z,100263.94
2023-02-18T05:27:53.277Z,100264.78
2023-02-18T05:30:20.958Z,100266.66
2023-02-18T05:32:48.544Z,100252.50
2023-02-18T05:35:16.021Z,100241.94
2023-02-18T05:37:44.830Z,100249.81
2023-02-18T05:40:13.043Z,100238.47
2023-02-18T05:42:40.515Z,100231.31
2023-02-18T05:45:08.836Z,100227.97
2023-02-18T05:47:36.339Z,100225.06
2023-02-18T05:50:04.740Z,100225.94
2023-02-18T05:52:32.238Z,100230.31
2023-02-18T05:55:01.024Z,100231.16
2023-02-18T05:57:28.485Z,100219.53
2023-02-18T05:59:56.090Z,100223.13
2023-02-18T06:02:23.619Z,100215.91
2023-02-18T06:04:51.231Z,100224.03
2023-02-18T06:07:20.564Z,100220.50
2023-02-18T06:09:48.832Z,100217.72
2023-02-18T06:12:17.668Z,100211.50
2023-02-18T06:14:45.370Z,100201.75
2023-02-18T06:17:13.534Z,100196.44
2023-02-18T06:19:41.195Z,100198.19
2023-02-18T06:22:09.157Z,100191.06
2023-02-18T06:24:36.746Z,100189.28
2023-02-18T06:27:04.845Z,100184.91
2023-02-18T06:29:35.839Z,100179.53
2023-02-18T06:32:03.672Z,100170.72
2023-02-18T06:34:31.192Z,100173.41
2023-02-18T06:37:00.382Z,100166.22
2023-02-18T06:39:28.720Z,100170.63
2023-02-18T06:41:56.173Z,100161.75
2023-02-18T06:44:23.606Z,100164.50
2023-02-18T06:46:52.487Z,100154.72
2023-02-18T06:49:19.961Z,100169.72
2023-02-18T06:51:47.452Z,100152.97
2023-02-18T06:54:14.912Z,100146.88
2023-02-18T06:56:42.375Z,100139.78
2023-02-18T06:59:09.852Z,100142.34
2023-02-18T07:01:37.338Z,100132.25
2023-02-18T07:04:07.012Z,100119.81
2023-02-18T07:06:34.768Z,100124.13
2023-02-18T07:09:02.255Z,100115.38
2023-02-18T07:11:29.739Z,100107.28
2023-02-18T07:13:57.219Z,100103.16
2023-02-18T07:16:24.730Z,100093.16
2023-02-18T07:18:52.496Z,100094.84
2023-02-18T07:21:21.259Z,100092.97
2023-02-18T07:23:48.743Z,100079.53
2023-02-18T07:26:16.430Z,100067.09
2023-02-18T07:28:43.999Z,100075.25
2023-02-18T07:31:11.857Z,100062.41
2023-02-18T07:33:39.462Z,100070.19
2023-02-18T07:36:08.515Z,100063.91
2023-02-18T07:38:37.506Z,100055.28
2023-02-18T07:41:05.303Z,100042.53
2023-02-18T07:43:32.927Z,100040.75
2023-02-18T07:46:00.633Z,100024.00
2023-02-18T07:48:28.155Z,100031.06
2023-02-18T07:50:55.609Z,100033.00
2023-02-18T07:53:23.082Z,100026.44
2023-02-18T07:55:52.027Z,100034.47
2023-02-18T07:58:20.065Z,100028.75
2023-02-18T08:00:49.398Z,100029.06
2023-02-18T08:03:17.794Z,100010.44
2023-02-18T08:05:45.855Z,100013.09
2023-02-18T08:08:14.866Z,100009.41
2023-02-18T08:10:42.706Z,100003.25
2023-02-18T08:13:11.508Z,99993.25
2023-02-18T08:15:39.445Z,99995.28
2023-02-18T08:18:07.445Z,99989.69
2023-02-18T08:20:37.651Z,99987.06
2023-02-18T08:23:05.531Z,99972.03
2023-02-18T08:25:33.638Z,99966.75
2023-02-18T08:28:01.349Z,99960.06
2023-02-18T08:30:30.262Z,99968.25
2023-02-18T08:32:57.853Z,99951.56
2023-02-18T08:35:25.355Z,99960.78
2023-02-18T08:37:54.670Z,99949.22
2023-02-18T08:40:22.523Z,99948.38
2023-02-18T08:42:50.004Z,99951.66
2023-02-18T08:45:17.635Z,99952.38
2023-02-18T08:48:16.259Z,99944.69
2023-02-18T08:50:34.321Z,99934.31
2023-02-18T08:53:03.409Z,99934.31
2023-02-18T08:55:31.009Z,99933.44
2023-02-18T08:57:58.533Z,99931.41
2023-02-18T09:00:26.588Z,99918.28
2023-02-18T09:02:55.407Z,99916.53
2023-02-18T09:05:22.911Z,99916.16
2023-02-18T09:07:50.371Z,99910.31
2023-02-18T09:10:17.959Z,99903.00
2023-02-18T09:12:45.431Z,99901.72
2023-02-18T09:15:12.926Z,99892.22
2023-02-18T09:17:40.391Z,99883.28
2023-02-18T09:20:10.363Z,99884.22
2023-02-18T09:22:37.840Z,99885.09
2023-02-18T09:25:06.103Z,99889.41
2023-02-18T09:27:33.581Z,99888.84
2023-02-18T09:30:01.140Z,99888.63
2023-02-18T09:32:35.664Z,99876.63
2023-02-18T09:35:03.466Z,99865.00
2023-02-18T09:37:32.299Z,99851.59
2023-02-18T09:40:02.806Z,99855.75
2023-02-18T09:42:33.493Z,99837.88
2023-02-18T09:45:04.436Z,99848.38
2023-02-18T09:47:34.367Z,99847.28
2023-02-18T09:50:07.163Z,99829.41
2023-02-18T09:52:38.314Z,99831.16
2023-02-18T09:55:17.949Z,99821.84
2023-02-18T09:57:47.413Z,99826.13
2023-02-18T10:00:17.089Z,99828.53
2023-02-18T10:02:54.525Z,99823.88
2023-02-18T10:05:22.280Z,99810.34
2023-02-18T10:07:53.812Z,99823.69
2023-02-18T10:10:23.493Z,99816.41
2023-02-18T10:12:51.715Z,99801.22
2023-02-18T10:15:23.641Z,99804.41
2023-02-18T10:17:52.024Z,99806.03
2023-02-18T10:20:21.673Z,99804.06
2023-02-18T10:22:51.110Z,99814.56
2023-02-18T10:25:20.629Z,99795.81
2023-02-18T10:27:49.875Z,99792.94
2023-02-18T10:30:24.790Z,99791.00
2023-02-18T10:32:57.163Z,99772.06
2023-02-18T10:35:28.791Z,99781.91
2023-02-18T10:38:04.325Z,99771.91
2023-02-18T10:40:37.173Z,99774.47
2023-02-18T10:43:07.442Z,99774.47
2023-02-18T10:45:39.679Z,99774.41
2023-02-18T10:48:18.474Z,99777.03
2023-02-18T10:50:46.525Z,99773.53
2023-02-18T10:53:17.812Z,99769.97
2023-02-18T10:55:46.959Z,99776.19
2023-02-18T10:58:31.261Z,99777.91
2023-02-18T11:00:59.732Z,99761.88
2023-02-18T11:03:37.362Z,99764.56
2023-02-18T11:06:06.401Z,99760.22
2023-02-18T11:08:39.746Z,99736.06
2023-02-18T11:11:18.069Z,99748.44
2023-02-18T11:13:45.642Z,99738.59
2023-02-18T11:16:14.453Z,99747.34
2023-02-18T11:18:46.493Z,99734.81
2023-02-18T11:21:26.365Z,99733.03
2023-02-18T11:23:56.394Z,99735.53
2023-02-18T11:26:28.273Z,99740.03
2023-02-18T11:28:59.511Z,99722.31
2023-02-18T11:31:31.011Z,99716.97
2023-02-18T11:34:00.277Z,99722.25
2023-02-18T11:36:30.541Z,99728.44
2023-02-18T11:39:01.120Z,99726.78
2023-02-18T11:41:35.326Z,99723.19
2023-02-18T11:44:04.024Z,99711.47
2023-02-18T11:46:31.622Z,99715.19
2023-02-18T11:49:12.635Z,99709.81
2023-02-18T11:51:41.392Z,99709.81
2023-02-18T11:54:25.558Z,99712.63
2023-02-18T11:56:57.532Z,99716.16
2023-02-18T11:59:25.325Z,99718.00
2023-02-18T12:01:55.655Z,99724.13
2023-02-18T12:04:28.859Z,99723.19
2023-02-18T12:07:06.092Z,99714.59
2023-02-18T12:09:38.405Z,99710.91
2023-02-18T12:12:08.757Z,99715.19
2023-02-18T12:14:37.160Z,99708.09
2023-02-18T12:17:15.735Z,99711.91
2023-02-18T12:20:06.497Z,99704.69
2023-02-18T12:22:42.588Z,99695.09
2023-02-18T12:25:29.808Z,99703.06
2023-02-18T12:28:05.920Z,99701.31
2023-02-18T12:30:55.477Z,99705.78
2023-02-18T12:33:28.335Z,99702.16
2023-02-18T12:36:01.376Z,99691.47
2023-02-18T12:38:59.606Z,99692.47
2023-02-18T12:41:35.928Z,99697.94
2023-02-18T12:44:11.395Z,99699.44
2023-02-18T12:46:49.391Z,99696.41
2023-02-18T12:49:26.649Z,99713.34
2023-02-18T12:52:08.106Z,99705.31
2023-02-18T12:54:48.848Z,99700.03
2023-02-18T12:57:36.254Z,99714.28
2023-02-18T13:00:19.992Z,99703.78
2023-02-18T13:03:02.547Z,99706.47
2023-02-18T13:05:34.385Z,99703.06
2023-02-18T13:08:24.406Z,99714.88
2023-02-18T13:11:00.836Z,99720.25
2023-02-18T13:13:32.832Z,99724.69
2023-02-18T13:16:02.889Z,99722.09
2023-02-18T13:18:34.366Z,99707.84
2023-02-18T13:21:05.847Z,99728.38
2023-02-18T13:23:35.715Z,99717.66
2023-02-18T13:26:07.166Z,99730.19
2023-02-18T13:28:41.454Z,99739.13
2023-02-18T13:31:20.696Z,99732.03
2023-02-18T13:33:52.362Z,99735.66
2023-02-18T13:36:32.006Z,99732.00
2023-02-18T13:39:04.887Z,99728.53
2023-02-18T13:41:35.447Z,99737.53
2023-02-18T13:44:08.814Z,99731.25
2023-02-18T13:46:49.037Z,99733.88
2023-02-18T13:49:19.514Z,99724.03
2023-02-18T13:51:48.748Z,99733.78
2023-02-18T13:54:21.457Z,99727.41
2023-02-18T13:56:54.294Z,99727.41
2023-02-18T13:59:23.640Z,99727.50
2023-02-18T14:01:52.503Z,99734.72
2023-02-18T14:04:52.376Z,99741.78
2023-02-18T14:07:45.777Z,99741.72
2023-02-18T14:10:28.416Z,99739.13
2023-02-18T14:13:20.425Z,99745.34
2023-02-18T14:16:00.086Z,99741.09
2023-02-18T14:18:34.344Z,99743.91
2023-02-18T14:21:22.380Z,99735.06
2023-02-18T14:24:01.681Z,99760.88
2023-02-18T14:26:34.656Z,99754.66
2023-02-18T14:29:06.845Z,99752.84
2023-02-18T14:31:39.010Z,99759.34
2023-02-18T14:35:00.022Z,99753.84
2023-02-18T14:37:45.344Z,99759.94
2023-02-18T14:40:22.924Z,99752.50
2023-02-18T14:42:54.973Z,99765.00
2023-02-18T14:45:31.111Z,99764.84
2023-02-18T14:48:30.133Z,99769.38
2023-02-18T14:51:00.199Z,99762.97
2023-02-18T14:53:28.367Z,99772.88
2023-02-18T14:55:59.634Z,99783.53
2023-02-18T14:58:30.774Z,99782.75
2023-02-18T15:00:58.377Z,99778.16
2023-02-18T15:03:28.428Z,99793.38
2023-02-18T15:05:55.969Z,99785.66
2023-02-18T15:08:24.700Z,99794.47
2023-02-18T15:10:54.690Z,99794.19
2023-02-18T15:13:26.768Z,99808.47
2023-02-18T15:15:55.731Z,99794.25
2023-02-18T15:18:31.818Z,99806.81
2023-02-18T15:21:01.949Z,99801.53
2023-02-18T15:23:30.178Z,99813.34
2023-02-18T15:25:58.488Z,99816.03
2023-02-18T15:28:28.448Z,99815.13
2023-02-18T15:30:57.581Z,99813.34
2023-02-18T15:33:25.591Z,99827.66
2023-02-18T15:36:01.658Z,99831.94
2023-02-18T15:38:29.251Z,99833.03
2023-02-18T15:40:56.877Z,99843.75
2023-02-18T15:43:27.154Z,99842.88
2023-02-18T15:45:56.710Z,99847.28
2023-02-18T15:48:33.101Z,99848.28
2023-02-18T15:51:16.354Z,99850.03
2023-02-18T15:53:47.173Z,99834.00
2023-02-18T15:56:19.520Z,99851.78
2023-02-18T15:58:47.310Z,99852.84
2023-02-18T16:01:27.383Z,99850.03
2023-02-18T16:03:56.595Z,99834.00
2023-02-18T16:06:27.815Z,99850.91
2023-02-18T16:09:00.887Z,99862.50
2023-02-18T16:11:30.885Z,99862.66
2023-02-18T16:13:58.340Z,99863.53
2023-02-18T16:16:29.662Z,99865.38
2023-02-18T16:18:57.364Z,99859.94
2023-02-18T16:21:33.588Z,99876.06
2023-02-18T16:24:03.118Z,99868.13
2023-02-18T16:26:33.462Z,99882.41
2023-02-18T16:29:14.217Z,99876.25
2023-02-18T16:31:42.093Z,99882.41
2023-02-18T16:34:10.245Z,99889.50
2023-02-18T16:36:59.097Z,99890.50
2023-02-18T16:39:26.684Z,99908.19
2023-02-18T16:41:54.159Z,99901.34
2023-02-18T16:44:21.605Z,99910.88
2023-02-18T16:46:49.132Z,99898.63
2023-02-18T16:49:17.044Z,99906.63
2023-02-18T16:51:45.832Z,99904.88
2023-02-18T16:54:15.732Z,99922.66
2023-02-18T16:56:43.287Z,99911.22
2023-02-18T16:59:10.779Z,99924.53
2023-02-18T17:01:41.431Z,99929.00
2023-02-18T17:04:12.451Z,99922.72
2023-02-18T17:06:39.997Z,99923.66
2023-02-18T17:09:15.096Z,99941.47
2023-02-18T17:11:42.596Z,99927.25
2023-02-18T17:14:11.218Z,99934.50
2023-02-18T17:16:39.012Z,99940.63
2023-02-18T17:19:06.482Z,99938.00
2023-02-18T17:21:33.962Z,99939.78
2023-02-18T17:24:02.091Z,99945.88
2023-02-18T17:26:31.778Z,99947.84
2023-02-18T17:29:00.911Z,99951.38
2023-02-18T17:31:30.918Z,99971.84
2023-02-18T17:34:01.063Z,99959.22
2023-02-18T17:36:28.842Z,99969.09
2023-02-18T17:38:56.478Z,99974.44
2023-02-18T17:41:23.954Z,99960.19
2023-02-18T17:43:52.821Z,99975.31
2023-02-18T17:46:20.859Z,99968.19
2023-02-18T17:48:48.348Z,99971.78
2023-02-18T17:51:24.455Z,99982.47
2023-02-18T17:53:52.107Z,99991.47
2023-02-18T17:56:19.811Z,99983.56
2023-02-18T17:58:48.714Z,99998.56
2023-02-18T18:01:18.529Z,100011.03
2023-02-18T18:03:46.092Z,100004.00
2023-02-18T18:06:16.547Z,100018.28
2023-02-18T18:08:44.057Z,100014.84
2023-02-18T18:11:14.528Z,100013.88
2023-02-18T18:13:42.002Z,100022.91
2023-02-18T18:16:10.871Z,100020.25
2023-02-18T18:18:39.670Z,100019.41
2023-02-18T18:21:08.065Z,100029.38
2023-02-18T18:23:35.730Z,100021.31
2023-02-18T18:26:03.188Z,100019.22
2023-02-18T18:28:33.165Z,100021.22
2023-02-18T18:31:02.104Z,100032.69
2023-02-18T18:33:31.564Z,100025.63
2023-02-18T18:36:00.929Z,100023.94
2023-02-18T18:38:30.333Z,100023.06
2023-02-18T18:40:57.880Z,100021.34
2023-02-18T18:43:26.919Z,100021.16
2023-02-18T18:45:54.801Z,100012.22
2023-02-18T18:48:23.657Z,100022.13
2023-02-18T18:50:51.915Z,100014.22
2023-02-18T18:53:22.281Z,100015.97
2023-02-18T18:55:50.584Z,100014.22
2023-02-18T18:58:20.803Z,100026.59
2023-02-18T19:00:50.843Z,100011.56
2023-02-18T19:03:18.849Z,100023.06
2023-02-18T19:05:46.997Z,100028.50
2023-02-18T19:08:16.686Z,100027.63
2023-02-18T19:10:47.194Z,100024.75
2023-02-18T19:13:16.121Z,100022.25
2023-02-18T19:15:43.861Z,100025.00
2023-02-18T19:18:13.595Z,100026.75
2023-02-18T19:20:42.909Z,100026.69
2023-02-18T19:23:11.028Z,100020.56
2023-02-18T19:25:38.749Z,100032.09
2023-02-18T19:28:08.604Z,100026.81
2023-02-18T19:30:37.340Z,100028.66
2023-02-18T19:33:06.592Z,100033.00
2023-02-18T19:35:34.317Z,100032.16
2023-02-18T19:38:02.075Z,100034.00
2023-02-18T19:40:31.504Z,100040.25
2023-02-18T19:42:58.966Z,100045.47
2023-02-18T19:45:27.878Z,100036.66
2023-02-18T19:47:55.958Z,100060.66
2023-02-18T19:50:23.984Z,100039.34
2023-02-18T19:52:53.003Z,100060.03
2023-02-18T19:55:20.553Z,100055.47
2023-02-18T19:57:48.016Z,100048.47
2023-02-18T20:00:16.822Z,100059.09
2023-02-18T20:02:45.647Z,100054.72
2023-02-18T20:05:14.633Z,100057.44
2023-02-18T20:07:42.560Z,100063.00
2023-02-18T20:10:13.139Z,100065.03
2023-02-18T20:12:40.615Z,100071.38
2023-02-18T20:15:08.913Z,100072.38
2023-02-18T20:17:36.361Z,100069.66
2023-02-18T20:20:05.885Z,100062.69
2023-02-18T20:22:33.346Z,100075.94
2023-02-18T20:25:00.980Z,100071.56
2023-02-18T20:27:28.461Z,100072.53
2023-02-18T20:29:55.948Z,100075.19
2023-02-18T20:32:23.420Z,100084.88
2023-02-18T20:34:50.923Z,100080.50
2023-02-18T20:37:19.868Z,100086.75
2023-02-18T20:39:47.339Z,100090.53
2023-02-18T20:42:16.907Z,100083.44
2023-02-18T20:44:44.733Z,100074.78
2023-02-18T20:47:13.446Z,100084.06
2023-02-18T20:49:41.432Z,100074.41
2023-02-18T20:52:09.879Z,100076.41
2023-02-18T20:54:38.691Z,100076.44
2023-02-18T20:57:06.223Z,100078.34
2023-02-18T20:59:34.172Z,100082.91
2023-02-18T21:02:02.026Z,100086.50
2023-02-18T21:04:29.791Z,100085.66
2023-02-18T21:06:57.533Z,100085.59
2023-02-18T21:09:25.269Z,100079.47
2023-02-18T21:11:54.047Z,100068.69
2023-02-18T21:14:21.511Z,100074.09
2023-02-18T21:16:48.977Z,100080.16
2023-02-18T21:19:17.855Z,100075.66
2023-02-18T21:21:46.879Z,100072.09
2023-02-18T21:24:14.382Z,100074.72
2023-02-18T21:26:42.654Z,100088.03
2023-02-18T21:29:11.522Z,100089.78
2023-02-18T21:31:41.624Z,100081.94
2023-02-18T21:34:12.317Z,100096.03
2023-02-18T21:36:40.123Z,100087.16
2023-02-18T21:39:09.897Z,100079.72
2023-02-18T21:41:40.401Z,100079.94
2023-02-18T21:44:08.785Z,100077.38
2023-02-18T21:46:38.094Z,100082.59
2023-02-18T21:49:06.597Z,100081.59
2023-02-18T21:51:54.248Z,100087.97
2023-02-18T21:54:23.346Z,100100.50
2023-02-18T21:56:51.612Z,100084.53
2023-02-18T21:59:19.854Z,100102.31
2023-02-18T22:01:49.142Z,100092.81
2023-02-18T22:04:16.667Z,100086.66
2023-02-18T22:06:44.275Z,100091.16
2023-02-18T22:09:12.559Z,100095.72
2023-02-18T22:11:40.931Z,100085.06
2023-02-18T22:14:08.538Z,100084.22
2023-02-18T22:16:36.047Z,100085.16
2023-02-18T22:19:05.361Z,100086.00
2023-02-18T22:21:32.829Z,100074.31
2023-02-18T22:24:00.334Z,100076.97
2023-02-18T22:26:27.859Z,100076.31
2023-02-18T22:28:56.872Z,100084.31
2023-02-18T22:31:25.410Z,100084.16
2023-02-18T22:33:53.749Z,100087.88
2023-02-18T22:36:24.781Z,100087.00
2023-02-18T22:38:53.187Z,100091.31
2023-02-18T22:41:22.503Z,100091.38
2023-02-18T22:43:54.537Z,100094.22
2023-02-18T22:46:22.062Z,100095.06
2023-02-18T22:48:49.625Z,100090.59
2023-02-18T22:51:19.241Z,100098.53
2023-02-18T22:53:48.438Z,100106.59
2023-02-18T22:56:18.245Z,100101.31
2023-02-18T22:58:46.945Z,100085.28
2023-02-18T23:01:20.215Z,100082.53
2023-02-18T23:03:47.808Z,100086.28
2023-02-18T23:06:15.718Z,100076.47
2023-02-18T23:08:43.601Z,100076.38
2023-02-18T23:11:15.223Z,100072.00
2023-02-18T23:13:43.114Z,100060.19
2023-02-18T23:16:13.631Z,100068.38
2023-02-18T23:18:41.479Z,100071.13
2023-02-18T23:21:24.111Z,100072.09
2023-02-18T23:23:53.648Z,100065.84
2023-02-18T23:26:23.649Z,100071.81
2023-02-18T23:28:51.390Z,100062.69
2023-02-18T23:31:20.738Z,100066.59
2023-02-18T23:33:49.849Z,100074.63
2023-02-18T23:36:19.205Z,100060.13
2023-02-18T23:38:48.267Z,100067.88
2023-02-18T23:41:15.744Z,100068.28
2023-02-18T23:43:44.502Z,100063.06
2023-02-18T23:46:12.126Z,100068.34
2023-02-18T23:48:39.759Z,100049.63
2023-02-18T23:51:08.722Z,100053.28
2023-02-18T23:53:37.416Z,100058.69
2023-02-18T23:56:07.627Z,100051.59
2023-02-18T23:58:35.369Z,100058.63
